createdAt,value
2023-01-19T00:00:56.399Z,16.90
2023-01-19T00:01:56.373Z,18.20
2023-01-19T00:02:56.439Z,19.20
2023-01-19T00:03:56.358Z,18.80
2023-01-19T00:04:56.389Z,17.70
2023-01-19T00:05:56.405Z,17.50
2023-01-19T00:06:56.334Z,18.60
2023-01-19T00:07:56.342Z,19.50
2023-01-19T00:08:56.301Z,17.40
2023-01-19T00:09:56.302Z,18.80
2023-01-19T00:10:56.298Z,18.70
2023-01-19T00:11:56.274Z,18.70
2023-01-19T00:12:56.263Z,18.20
2023-01-19T00:13:56.255Z,18.90
2023-01-19T00:14:56.239Z,18.90
2023-01-19T00:15:56.272Z,19.30
2023-01-19T00:16:56.220Z,18.60
2023-01-19T00:17:56.215Z,19.20
2023-01-19T00:18:56.215Z,21.60
2023-01-19T00:19:56.196Z,18.70
2023-01-19T00:20:56.198Z,16.40
2023-01-19T00:21:56.175Z,17.30
2023-01-19T00:22:56.160Z,16.20
2023-01-19T00:23:56.158Z,19.80
2023-01-19T00:24:56.145Z,18.20
2023-01-19T00:25:56.154Z,17.80
2023-01-19T00:26:56.121Z,17.50
2023-01-19T00:27:57.122Z,18.50
2023-01-19T00:28:56.106Z,18.10
2023-01-19T00:29:56.107Z,19.10
2023-01-19T00:30:56.104Z,18.70
2023-01-19T00:31:56.096Z,17.40
2023-01-19T00:32:56.070Z,17.20
2023-01-19T00:33:56.082Z,19.50
2023-01-19T00:34:56.044Z,16.30
2023-01-19T00:35:56.074Z,17.90
2023-01-19T00:36:56.019Z,16.20
2023-01-19T00:37:56.033Z,17.60
2023-01-19T00:38:55.995Z,17.50
2023-01-19T00:39:55.997Z,19.80
2023-01-19T00:40:55.991Z,16.00
2023-01-19T00:41:55.972Z,18.00
2023-01-19T00:42:55.959Z,16.60
2023-01-19T00:43:55.953Z,16.20
2023-01-19T00:44:55.949Z,18.60
2023-01-19T00:45:56.027Z,19.50
2023-01-19T00:46:55.914Z,16.20
2023-01-19T00:47:55.908Z,19.70
2023-01-19T00:48:55.893Z,17.00
2023-01-19T00:49:55.906Z,16.30
2023-01-19T00:50:55.884Z,18.90
2023-01-19T00:51:55.873Z,19.00
2023-01-19T00:52:55.854Z,17.40
2023-01-19T00:53:55.851Z,18.30
2023-01-19T00:54:55.837Z,15.90
2023-01-19T00:55:55.844Z,18.90
2023-01-19T00:56:55.812Z,20.40
2023-01-19T00:57:55.805Z,17.60
2023-01-19T00:58:55.789Z,17.10
2023-01-19T00:59:55.785Z,18.00
2023-01-19T01:00:55.854Z,19.10
2023-01-19T01:01:55.961Z,18.50
2023-01-19T01:02:55.846Z,19.30
2023-01-19T01:03:55.753Z,17.80
2023-01-19T01:04:55.734Z,19.70
2023-01-19T01:05:55.767Z,16.30
2023-01-19T01:06:55.708Z,19.40
2023-01-19T01:07:55.700Z,19.40
2023-01-19T01:08:55.691Z,17.30
2023-01-19T01:09:55.682Z,20.10
2023-01-19T01:10:55.687Z,17.00
2023-01-19T01:11:55.658Z,18.30
2023-01-19T01:12:58.076Z,20.00
2023-01-19T01:13:55.638Z,19.00
2023-01-19T01:14:55.632Z,18.00
2023-01-19T01:15:55.633Z,19.90
2023-01-19T01:16:55.611Z,19.20
2023-01-19T01:17:55.599Z,21.30
2023-01-19T01:18:55.589Z,18.60
2023-01-19T01:19:55.586Z,18.50
2023-01-19T01:20:56.423Z,22.00
2023-01-19T01:21:55.559Z,20.30
2023-01-19T01:22:55.574Z,19.30
2023-01-19T01:23:55.549Z,18.40
2023-01-19T01:24:55.522Z,20.30
2023-01-19T01:25:55.524Z,17.80
2023-01-19T01:26:55.504Z,17.70
2023-01-19T01:27:55.508Z,21.30
2023-01-19T01:28:55.483Z,17.50
2023-01-19T01:29:55.477Z,19.20
2023-01-19T01:30:55.483Z,20.00
2023-01-19T01:31:55.510Z,18.30
2023-01-19T01:32:55.440Z,19.40
2023-01-19T01:33:55.432Z,19.70
2023-01-19T01:34:55.425Z,18.70
2023-01-19T01:35:55.431Z,17.20
2023-01-19T01:36:55.403Z,17.80
2023-01-19T01:37:55.398Z,18.50
2023-01-19T01:38:55.381Z,17.60
2023-01-19T01:39:55.376Z,18.10
2023-01-19T01:40:55.415Z,19.70
2023-01-19T01:41:56.000Z,17.70
2023-01-19T01:42:55.352Z,18.70
2023-01-19T01:43:55.334Z,19.20
2023-01-19T01:44:55.315Z,20.20
2023-01-19T01:45:55.343Z,20.40
2023-01-19T01:46:55.295Z,20.50
2023-01-19T01:47:55.289Z,19.20
2023-01-19T01:48:55.282Z,19.70
2023-01-19T01:49:55.272Z,20.00
2023-01-19T01:50:55.273Z,19.10
2023-01-19T01:51:55.256Z,18.70
2023-01-19T01:53:07.709Z,19.60
2023-01-19T01:53:55.235Z,21.70
2023-01-19T01:54:55.220Z,18.50
2023-01-19T01:55:55.229Z,20.20
2023-01-19T01:56:55.199Z,22.60
2023-01-19T01:57:55.192Z,18.80
2023-01-19T01:58:55.177Z,20.10
2023-01-19T01:59:55.173Z,18.70
2023-01-19T02:00:55.275Z,18.90
2023-01-19T02:01:55.314Z,20.60
2023-01-19T02:02:55.362Z,19.80
2023-01-19T02:03:55.134Z,19.20
2023-01-19T02:04:55.139Z,19.00
2023-01-19T02:05:55.129Z,19.90
2023-01-19T02:06:55.101Z,20.90
2023-01-19T02:07:55.115Z,20.40
2023-01-19T02:08:55.076Z,20.80
2023-01-19T02:09:55.071Z,18.40
2023-01-19T02:10:55.072Z,20.90
2023-01-19T02:11:55.054Z,20.70
2023-01-19T02:12:55.036Z,18.80
2023-01-19T02:13:55.032Z,20.10
2023-01-19T02:14:55.032Z,18.60
2023-01-19T02:15:55.040Z,18.40
2023-01-19T02:16:55.091Z,19.00
2023-01-19T02:17:54.992Z,16.70
2023-01-19T02:18:54.981Z,18.30
2023-01-19T02:19:54.976Z,18.00
2023-01-19T02:20:54.969Z,19.30
2023-01-19T02:21:54.963Z,19.30
2023-01-19T02:22:54.943Z,20.00
2023-01-19T02:23:54.929Z,18.30
2023-01-19T02:24:54.949Z,17.20
2023-01-19T02:25:54.923Z,17.40
2023-01-19T02:26:54.897Z,17.00
2023-01-19T02:27:54.914Z,17.40
2023-01-19T02:28:54.886Z,17.70
2023-01-19T02:29:54.871Z,17.30
2023-01-19T02:30:54.946Z,17.30
2023-01-19T02:31:54.865Z,18.60
2023-01-19T02:32:54.838Z,18.00
2023-01-19T02:33:54.843Z,18.30
2023-01-19T02:34:54.816Z,17.50
2023-01-19T02:35:54.810Z,17.40
2023-01-19T02:36:54.811Z,17.60
2023-01-19T02:37:54.796Z,17.40
2023-01-19T02:38:54.777Z,20.10
2023-01-19T02:39:54.770Z,20.60
2023-01-19T02:40:54.763Z,20.50
2023-01-19T02:41:54.765Z,18.60
2023-01-19T02:42:54.740Z,19.00
2023-01-19T02:43:54.735Z,18.80
2023-01-19T02:44:54.726Z,18.80
2023-01-19T02:45:54.740Z,18.50
2023-01-19T02:46:54.725Z,19.20
2023-01-19T02:47:54.696Z,19.50
2023-01-19T02:48:54.685Z,18.60
2023-01-19T02:49:54.676Z,18.10
2023-01-19T02:50:54.658Z,17.50
2023-01-19T02:51:54.668Z,17.10
2023-01-19T02:52:54.637Z,18.90
2023-01-19T02:53:54.655Z,18.10
2023-01-19T02:54:54.623Z,18.80
2023-01-19T02:55:54.622Z,17.70
2023-01-19T02:56:54.611Z,18.70
2023-01-19T02:57:54.589Z,17.00
2023-01-19T02:58:54.594Z,18.50
2023-01-19T02:59:54.574Z,20.20
2023-01-19T03:00:54.639Z,19.80
2023-01-19T03:01:54.568Z,18.70
2023-01-19T03:02:54.598Z,19.20
2023-01-19T03:03:54.538Z,17.90
2023-01-19T03:04:54.535Z,20.10
2023-01-19T03:05:54.516Z,19.10
2023-01-19T03:06:54.527Z,18.20
2023-01-19T03:07:54.527Z,19.50
2023-01-19T03:08:54.490Z,20.20
2023-01-19T03:09:54.475Z,18.60
2023-01-19T03:10:54.473Z,20.10
2023-01-19T03:11:54.474Z,21.10
2023-01-19T03:12:54.451Z,18.40
2023-01-19T03:13:54.453Z,19.60
2023-01-19T03:14:54.430Z,17.40
2023-01-19T03:15:54.484Z,19.30
2023-01-19T03:16:54.445Z,19.50
2023-01-19T03:17:54.403Z,17.50
2023-01-19T03:18:54.392Z,20.40
2023-01-19T03:19:54.379Z,20.70
2023-01-19T03:20:54.395Z,19.20
2023-01-19T03:21:54.383Z,18.30
2023-01-19T03:22:54.355Z,19.40
2023-01-19T03:23:54.342Z,16.50
2023-01-19T03:24:54.341Z,18.00
2023-01-19T03:25:54.318Z,16.90
2023-01-19T03:26:54.330Z,17.80
2023-01-19T03:27:54.299Z,18.60
2023-01-19T03:28:54.296Z,18.20
2023-01-19T03:29:54.283Z,17.80
2023-01-19T03:30:54.340Z,19.70
2023-01-19T03:31:54.285Z,18.80
2023-01-19T03:32:54.257Z,18.10
2023-01-19T03:33:54.240Z,17.70
2023-01-19T03:34:54.253Z,19.50
2023-01-19T03:35:54.223Z,18.10
2023-01-19T03:36:54.227Z,18.10
2023-01-19T03:37:54.203Z,19.20
2023-01-19T03:38:54.199Z,18.30
2023-01-19T03:39:54.185Z,18.20
2023-01-19T03:40:54.179Z,18.20
2023-01-19T03:41:54.179Z,17.70
2023-01-19T03:42:54.160Z,18.20
2023-01-19T03:43:54.145Z,19.30
2023-01-19T03:44:54.144Z,17.00
2023-01-19T03:45:54.148Z,17.40
2023-01-19T03:46:54.135Z,17.20
2023-01-19T03:47:54.103Z,18.00
2023-01-19T03:48:54.103Z,17.60
2023-01-19T03:49:54.087Z,18.20
2023-01-19T03:50:54.083Z,18.80
2023-01-19T03:51:54.084Z,17.20
2023-01-19T03:52:54.063Z,18.10
2023-01-19T03:53:54.048Z,17.60
2023-01-19T03:54:54.047Z,17.00
2023-01-19T03:55:54.032Z,17.60
2023-01-19T03:56:54.055Z,17.80
2023-01-19T03:57:54.011Z,16.80
2023-01-19T03:58:56.156Z,16.50
2023-01-19T03:59:53.999Z,17.20
2023-01-19T04:00:53.992Z,16.10
2023-01-19T04:01:54.043Z,16.70
2023-01-19T04:02:54.030Z,16.90
2023-01-19T04:03:53.961Z,16.60
2023-01-19T04:04:53.951Z,16.50
2023-01-19T04:05:53.938Z,17.30
2023-01-19T04:06:53.945Z,16.50
2023-01-19T04:07:53.915Z,16.50
2023-01-19T04:08:53.932Z,18.70
2023-01-19T04:09:53.898Z,16.60
2023-01-19T04:10:53.899Z,17.10
2023-01-19T04:11:53.906Z,18.20
2023-01-19T04:12:53.869Z,16.30
2023-01-19T04:13:53.863Z,18.00
2023-01-19T04:14:53.850Z,18.20
2023-01-19T04:15:53.913Z,16.00
2023-01-19T04:16:53.849Z,18.20
2023-01-19T04:17:53.830Z,15.80
2023-01-19T04:18:53.821Z,16.90
2023-01-19T04:19:53.798Z,15.60
2023-01-19T04:20:53.800Z,15.60
2023-01-19T04:21:53.806Z,15.60
2023-01-19T04:22:53.782Z,17.60
2023-01-19T04:23:53.766Z,16.70
2023-01-19T04:24:53.765Z,17.40
2023-01-19T04:25:53.742Z,16.50
2023-01-19T04:26:53.747Z,16.40
2023-01-19T04:27:53.730Z,15.50
2023-01-19T04:28:53.733Z,17.50
2023-01-19T04:29:53.714Z,15.10
2023-01-19T04:30:53.748Z,15.50
2023-01-19T04:31:53.696Z,15.30
2023-01-19T04:32:53.675Z,17.00
2023-01-19T04:33:53.667Z,15.30
2023-01-19T04:34:53.669Z,15.20
2023-01-19T04:35:54.571Z,15.00
2023-01-19T04:36:53.654Z,16.60
2023-01-19T04:37:53.636Z,15.40
2023-01-19T04:38:53.630Z,17.80
2023-01-19T04:39:53.606Z,15.50
2023-01-19T04:40:53.624Z,14.90
2023-01-19T04:41:53.603Z,15.80
2023-01-19T04:42:53.604Z,17.00
2023-01-19T04:43:53.572Z,18.30
2023-01-19T04:44:53.562Z,16.00
2023-01-19T04:45:53.552Z,16.30
2023-01-19T04:46:53.559Z,16.50
2023-01-19T04:47:53.532Z,16.00
2023-01-19T04:48:53.528Z,17.20
2023-01-19T04:49:53.511Z,17.30
2023-01-19T04:50:53.505Z,16.60
2023-01-19T04:51:53.502Z,17.00
2023-01-19T04:52:53.485Z,16.50
2023-01-19T04:53:53.486Z,16.30
2023-01-19T04:54:53.470Z,15.70
2023-01-19T04:55:53.455Z,18.70
2023-01-19T04:56:53.458Z,16.20
2023-01-19T04:57:53.435Z,16.00
2023-01-19T04:58:53.428Z,14.70
2023-01-19T04:59:53.412Z,17.40
2023-01-19T05:00:53.436Z,16.00
2023-01-19T05:01:53.438Z,17.60
2023-01-19T05:02:53.516Z,16.10
2023-01-19T05:03:53.383Z,16.70
2023-01-19T05:04:53.376Z,17.70
2023-01-19T05:05:53.360Z,17.10
2023-01-19T05:06:53.373Z,15.40
2023-01-19T05:07:53.342Z,17.70
2023-01-19T05:08:53.332Z,16.90
2023-01-19T05:09:53.320Z,16.80
2023-01-19T05:10:53.312Z,15.50
2023-01-19T05:11:53.308Z,16.20
2023-01-19T05:12:53.292Z,15.20
2023-01-19T05:13:53.281Z,17.20
2023-01-19T05:14:53.278Z,16.80
2023-01-19T05:15:53.287Z,16.40
2023-01-19T05:16:53.272Z,17.00
2023-01-19T05:17:53.260Z,16.90
2023-01-19T05:18:53.237Z,15.80
2023-01-19T05:19:53.218Z,17.40
2023-01-19T05:20:53.218Z,19.50
2023-01-19T05:21:53.223Z,16.90
2023-01-19T05:22:53.273Z,15.90
2023-01-19T05:23:53.181Z,15.20
2023-01-19T05:24:53.203Z,16.90
2023-01-19T05:25:53.162Z,14.70
2023-01-19T05:26:53.175Z,15.50
2023-01-19T05:27:53.138Z,16.70
2023-01-19T05:28:53.146Z,16.40
2023-01-19T05:29:53.121Z,15.50
2023-01-19T05:30:53.169Z,16.60
2023-01-19T05:31:53.236Z,15.50
2023-01-19T05:32:53.097Z,15.90
2023-01-19T05:33:53.093Z,17.20
2023-01-19T05:34:53.080Z,17.00
2023-01-19T05:35:53.067Z,18.90
2023-01-19T05:36:53.081Z,18.90
2023-01-19T05:37:53.055Z,16.70
2023-01-19T05:38:53.044Z,14.60
2023-01-19T05:39:53.028Z,17.00
2023-01-19T05:40:53.021Z,16.60
2023-01-19T05:41:53.006Z,15.60
2023-01-19T05:42:53.024Z,15.40
2023-01-19T05:43:52.987Z,17.00
2023-01-19T05:44:52.981Z,18.00
2023-01-19T05:45:52.970Z,17.90
2023-01-19T05:46:53.051Z,15.90
2023-01-19T05:47:52.968Z,17.40
2023-01-19T05:48:52.947Z,17.00
2023-01-19T05:49:52.930Z,16.50
2023-01-19T05:50:52.924Z,16.60
2023-01-19T05:51:52.912Z,17.00
2023-01-19T05:52:52.918Z,17.30
2023-01-19T05:53:52.902Z,19.00
2023-01-19T05:54:52.884Z,16.30
2023-01-19T05:55:52.881Z,15.30
2023-01-19T05:56:52.859Z,18.70
2023-01-19T05:57:52.876Z,17.70
2023-01-19T05:58:52.845Z,15.60
2023-01-19T05:59:52.835Z,16.20
2023-01-19T06:00:52.877Z,16.30
2023-01-19T06:01:52.891Z,17.40
2023-01-19T06:02:52.944Z,18.60
2023-01-19T06:03:52.856Z,15.90
2023-01-19T06:04:52.828Z,18.10
2023-01-19T06:05:52.832Z,17.60
2023-01-19T06:06:52.765Z,15.70
2023-01-19T06:07:52.782Z,19.70
2023-01-19T06:08:52.747Z,16.50
2023-01-19T06:09:52.741Z,18.30
2023-01-19T06:10:52.730Z,16.90
2023-01-19T06:11:52.722Z,18.70
2023-01-19T06:12:52.725Z,15.50
2023-01-19T06:13:52.717Z,17.30
2023-01-19T06:14:52.694Z,17.00
2023-01-19T06:15:52.693Z,16.90
2023-01-19T06:16:52.678Z,17.70
2023-01-19T06:17:52.689Z,16.60
2023-01-19T06:18:52.648Z,17.30
2023-01-19T06:19:52.655Z,16.10
2023-01-19T06:20:52.630Z,17.50
2023-01-19T06:21:52.717Z,16.30
2023-01-19T06:22:52.625Z,17.90
2023-01-19T06:23:52.606Z,17.10
2023-01-19T06:24:52.603Z,17.60
2023-01-19T06:25:52.591Z,15.80
2023-01-19T06:26:52.598Z,16.80
2023-01-19T06:27:52.589Z,18.30
2023-01-19T06:28:58.586Z,18.10
2023-01-19T06:29:53.228Z,17.70
2023-01-19T06:30:52.582Z,16.40
2023-01-19T06:31:52.605Z,16.90
2023-01-19T06:32:52.542Z,20.10
2023-01-19T06:33:52.516Z,14.80
2023-01-19T06:34:54.007Z,17.70
2023-01-19T06:35:52.494Z,16.40
2023-01-19T06:36:52.483Z,16.10
2023-01-19T06:37:52.487Z,18.80
2023-01-19T06:38:52.461Z,19.80
2023-01-19T06:39:52.450Z,17.10
2023-01-19T06:40:52.442Z,19.10
2023-01-19T06:41:52.436Z,16.60
2023-01-19T06:42:52.437Z,17.10
2023-01-19T06:43:52.412Z,16.30
2023-01-19T06:44:52.399Z,17.50
2023-01-19T06:45:52.379Z,18.20
2023-01-19T06:46:52.382Z,16.10
2023-01-19T06:47:52.402Z,17.50
2023-01-19T06:48:52.318Z,18.20
2023-01-19T06:49:52.301Z,16.90
2023-01-19T06:50:52.285Z,17.30
2023-01-19T06:51:52.285Z,18.70
2023-01-19T06:52:52.292Z,19.50
2023-01-19T06:53:52.276Z,17.50
2023-01-19T06:54:52.249Z,20.50
2023-01-19T06:55:52.244Z,19.70
2023-01-19T06:56:52.237Z,18.90
2023-01-19T06:57:52.239Z,20.50
2023-01-19T06:58:52.214Z,19.00
2023-01-19T06:59:52.202Z,20.30
2023-01-19T07:00:52.363Z,18.20
2023-01-19T07:01:52.265Z,20.70
2023-01-19T07:02:52.207Z,18.50
2023-01-19T07:03:52.176Z,19.10
2023-01-19T07:04:52.159Z,20.40
2023-01-19T07:05:52.316Z,22.70
2023-01-19T07:06:52.136Z,21.20
2023-01-19T07:07:52.156Z,21.00
2023-01-19T07:08:52.135Z,22.10
2023-01-19T07:09:54.000Z,20.10
2023-01-19T07:11:25.180Z,21.80
2023-01-19T07:11:52.097Z,22.30
2023-01-19T07:12:52.091Z,19.60
2023-01-19T07:13:52.078Z,18.90
2023-01-19T07:14:52.088Z,22.70
2023-01-19T07:15:52.052Z,19.90
2023-01-19T07:16:52.056Z,23.20
2023-01-19T07:17:52.044Z,21.40
2023-01-19T07:18:52.049Z,21.20
2023-01-19T07:19:52.014Z,20.50
2023-01-19T07:20:52.005Z,21.80
2023-01-19T07:21:51.998Z,23.20
2023-01-19T07:22:51.994Z,22.40
2023-01-19T07:23:51.978Z,25.80
2023-01-19T07:24:51.958Z,24.50
2023-01-19T07:25:51.956Z,29.30
2023-01-19T07:26:51.937Z,22.10
2023-01-19T07:27:51.950Z,26.60
2023-01-19T07:28:51.921Z,22.20
2023-01-19T07:29:51.915Z,24.90
2023-01-19T07:30:51.999Z,23.00
2023-01-19T07:31:51.931Z,22.10
2023-01-19T07:32:51.893Z,25.00
2023-01-19T07:33:51.881Z,23.50
2023-01-19T07:34:51.865Z,25.70
2023-01-19T07:35:51.857Z,28.00
2023-01-19T07:36:51.851Z,24.40
2023-01-19T07:37:51.860Z,25.10
2023-01-19T07:38:51.824Z,24.30
2023-01-19T07:39:51.821Z,26.00
2023-01-19T07:40:51.807Z,21.50
2023-01-19T07:41:51.801Z,21.50
2023-01-19T07:42:51.795Z,24.60
2023-01-19T07:43:51.782Z,24.60
2023-01-19T07:44:51.767Z,29.50
2023-01-19T07:45:51.780Z,31.50
2023-01-19T07:46:51.748Z,32.10
2023-01-19T07:47:51.752Z,36.20
2023-01-19T07:48:51.730Z,35.60
2023-01-19T07:49:51.730Z,39.50
2023-01-19T07:50:51.706Z,29.60
2023-01-19T07:51:51.708Z,33.20
2023-01-19T07:52:51.709Z,36.90
2023-01-19T07:53:51.692Z,37.10
2023-01-19T07:54:51.686Z,39.50
2023-01-19T07:55:51.668Z,35.30
2023-01-19T07:56:51.668Z,31.00
2023-01-19T07:57:51.657Z,39.10
2023-01-19T07:58:51.630Z,29.40
2023-01-19T07:59:51.627Z,36.30
2023-01-19T08:00:51.650Z,38.60
2023-01-19T08:01:51.749Z,40.00
2023-01-19T08:02:51.607Z,41.30
2023-01-19T08:03:51.589Z,36.90
2023-01-19T08:04:51.628Z,31.20
2023-01-19T08:05:51.575Z,41.80
2023-01-19T08:06:51.560Z,33.40
2023-01-19T08:07:53.335Z,36.00
2023-01-19T08:08:51.553Z,32.60
2023-01-19T08:09:51.547Z,34.00
2023-01-19T08:10:51.521Z,37.10
2023-01-19T08:11:51.523Z,26.30
2023-01-19T08:12:51.507Z,31.70
2023-01-19T08:13:51.489Z,29.90
2023-01-19T08:14:51.490Z,31.80
2023-01-19T08:15:51.574Z,36.20
2023-01-19T08:16:51.469Z,33.80
2023-01-19T08:17:51.469Z,31.40
2023-01-19T08:18:51.442Z,30.50
2023-01-19T08:19:51.441Z,29.80
2023-01-19T08:20:51.446Z,33.50
2023-01-19T08:21:51.420Z,42.50
2023-01-19T08:22:51.418Z,30.00
2023-01-19T08:23:51.414Z,32.40
2023-01-19T08:24:51.381Z,36.60
2023-01-19T08:25:51.382Z,40.30
2023-01-19T08:26:51.361Z,28.50
2023-01-19T08:27:51.371Z,35.60
2023-01-19T08:28:51.357Z,34.40
2023-01-19T08:29:51.340Z,30.60
2023-01-19T08:30:51.378Z,34.60
2023-01-19T08:31:51.367Z,29.90
2023-01-19T08:32:51.321Z,32.60
2023-01-19T08:33:51.301Z,32.30
2023-01-19T08:34:51.285Z,38.80
2023-01-19T08:35:51.287Z,30.30
2023-01-19T08:36:51.269Z,32.10
2023-01-19T08:37:51.262Z,26.80
2023-01-19T08:38:51.279Z,29.70
2023-01-19T08:39:51.257Z,32.40
2023-01-19T08:40:51.240Z,31.00
2023-01-19T08:41:51.231Z,22.40
2023-01-19T08:42:51.229Z,21.00
2023-01-19T08:43:51.218Z,24.60
2023-01-19T08:44:58.047Z,28.90
2023-01-19T08:45:51.214Z,27.60
2023-01-19T08:46:51.168Z,28.60
2023-01-19T08:47:51.200Z,31.40
2023-01-19T08:48:51.180Z,29.30
2023-01-19T08:49:51.144Z,28.40
2023-01-19T08:50:51.139Z,26.40
2023-01-19T08:51:51.148Z,29.00
2023-01-19T08:52:51.114Z,30.40
2023-01-19T08:53:51.129Z,24.30
2023-01-19T08:54:51.092Z,26.30
2023-01-19T08:55:51.084Z,29.20
2023-01-19T08:56:51.075Z,36.80
2023-01-19T08:57:51.065Z,27.20
2023-01-19T08:59:03.441Z,28.90
2023-01-19T08:59:51.063Z,29.40
2023-01-19T09:00:51.059Z,30.20
2023-01-19T09:01:51.304Z,25.30
2023-01-19T09:02:51.029Z,28.60
2023-01-19T09:03:51.024Z,29.10
2023-01-19T09:04:50.993Z,26.30
2023-01-19T09:05:50.988Z,28.20
2023-01-19T09:06:50.977Z,30.60
2023-01-19T09:07:50.977Z,23.70
2023-01-19T09:08:50.970Z,28.80
2023-01-19T09:09:50.954Z,34.00
2023-01-19T09:10:50.967Z,29.20
2023-01-19T09:11:50.929Z,31.10
2023-01-19T09:12:50.915Z,26.80
2023-01-19T09:13:50.945Z,22.00
2023-01-19T09:14:50.897Z,22.90
2023-01-19T09:15:50.929Z,21.90
2023-01-19T09:16:50.880Z,21.50
2023-01-19T09:17:50.871Z,25.50
2023-01-19T09:18:50.871Z,30.90
2023-01-19T09:19:50.851Z,23.20
2023-01-19T09:20:50.838Z,22.70
2023-01-19T09:21:50.854Z,23.60
2023-01-19T09:22:50.824Z,31.60
2023-01-19T09:23:50.831Z,19.80
2023-01-19T09:24:50.800Z,20.70
2023-01-19T09:25:50.795Z,19.70
2023-01-19T09:26:50.781Z,23.10
2023-01-19T09:27:50.780Z,25.30
2023-01-19T09:28:50.776Z,19.90
2023-01-19T09:29:50.752Z,26.60
2023-01-19T09:30:50.841Z,28.70
2023-01-19T09:31:50.828Z,29.90
2023-01-19T09:32:50.717Z,26.30
2023-01-19T09:33:50.726Z,23.50
2023-01-19T09:34:50.699Z,19.50
2023-01-19T09:35:50.699Z,17.20
2023-01-19T09:36:50.680Z,23.90
2023-01-19T09:37:50.675Z,24.10
2023-01-19T09:38:50.703Z,20.80
2023-01-19T09:39:50.689Z,24.00
2023-01-19T09:40:50.670Z,19.10
2023-01-19T09:41:50.634Z,20.80
2023-01-19T09:42:50.622Z,19.60
2023-01-19T09:43:50.634Z,25.90
2023-01-19T09:44:50.604Z,21.40
2023-01-19T09:45:50.598Z,28.30
2023-01-19T09:46:50.622Z,21.10
2023-01-19T09:47:50.577Z,24.00
2023-01-19T09:48:50.574Z,17.80
2023-01-19T09:49:50.560Z,19.90
2023-01-19T09:50:50.545Z,18.00
2023-01-19T09:51:50.554Z,21.80
2023-01-19T09:52:50.535Z,19.50
2023-01-19T09:53:50.530Z,18.60
2023-01-19T09:54:50.500Z,14.00
2023-01-19T09:55:50.498Z,20.00
2023-01-19T09:56:52.651Z,18.50
2023-01-19T09:57:50.478Z,15.70
2023-01-19T09:58:50.476Z,15.90
2023-01-19T09:59:50.463Z,16.20
2023-01-19T10:00:50.566Z,17.20
2023-01-19T10:01:50.505Z,16.30
2023-01-19T10:02:50.445Z,18.10
2023-01-19T10:03:50.437Z,13.90
2023-01-19T10:04:50.407Z,14.10
2023-01-19T10:05:50.588Z,16.70
2023-01-19T10:06:50.385Z,14.90
2023-01-19T10:07:50.378Z,17.50
2023-01-19T10:08:50.381Z,14.00
2023-01-19T10:09:50.356Z,16.10
2023-01-19T10:10:50.351Z,14.50
2023-01-19T10:11:52.984Z,12.50
2023-01-19T10:12:50.330Z,14.60
2023-01-19T10:13:50.334Z,11.80
2023-01-19T10:14:50.307Z,18.10
2023-01-19T10:15:50.327Z,15.30
2023-01-19T10:16:50.289Z,13.90
2023-01-19T10:17:50.276Z,17.80
2023-01-19T10:18:50.305Z,12.40
2023-01-19T10:19:50.253Z,14.60
2023-01-19T10:20:50.256Z,17.00
2023-01-19T10:21:50.240Z,19.90
2023-01-19T10:22:50.241Z,23.00
2023-01-19T10:23:50.248Z,20.70
2023-01-19T10:24:50.231Z,22.80
2023-01-19T10:25:50.221Z,29.80
2023-01-19T10:26:50.213Z,44.20
2023-01-19T10:27:50.178Z,45.80
2023-01-19T10:28:50.178Z,57.50
2023-01-19T10:29:50.163Z,51.60
2023-01-19T10:30:50.186Z,70.80
2023-01-19T10:31:50.246Z,55.80
2023-01-19T10:32:50.224Z,53.00
2023-01-19T10:33:50.147Z,54.20
2023-01-19T10:34:50.107Z,50.10
2023-01-19T10:35:50.098Z,67.00
2023-01-19T10:36:50.095Z,63.20
2023-01-19T10:37:50.096Z,65.10
2023-01-19T10:38:50.084Z,58.40
2023-01-19T10:39:50.089Z,58.20
2023-01-19T10:40:50.087Z,62.00
2023-01-19T10:41:50.047Z,51.60
2023-01-19T10:42:50.037Z,70.60
2023-01-19T10:43:50.035Z,63.10
2023-01-19T10:44:50.013Z,64.50
2023-01-19T10:45:50.040Z,81.50
2023-01-19T10:46:50.029Z,55.20
2023-01-19T10:47:49.977Z,71.00
2023-01-19T10:48:50.010Z,69.50
2023-01-19T10:49:49.963Z,54.10
2023-01-19T10:50:49.966Z,43.70
2023-01-19T10:51:49.939Z,45.50
2023-01-19T10:52:50.016Z,56.60
2023-01-19T10:53:49.929Z,51.00
2023-01-19T10:54:49.914Z,53.20
2023-01-19T10:55:49.898Z,48.70
2023-01-19T10:56:50.083Z,47.60
2023-01-19T10:57:49.889Z,38.80
2023-01-19T10:58:49.938Z,49.50
2023-01-19T10:59:49.859Z,58.10
2023-01-19T11:00:49.969Z,36.40
2023-01-19T11:01:50.095Z,45.10
2023-01-19T11:02:49.973Z,48.10
2023-01-19T11:03:49.850Z,44.60
2023-01-19T11:04:50.285Z,38.50
2023-01-19T11:05:49.800Z,44.10
2023-01-19T11:06:49.798Z,35.60
2023-01-19T11:07:49.780Z,38.10
2023-01-19T11:08:49.787Z,31.20
2023-01-19T11:09:49.766Z,31.10
2023-01-19T11:10:49.755Z,25.60
2023-01-19T11:11:49.740Z,34.10
2023-01-19T11:12:49.732Z,33.30
2023-01-19T11:13:49.734Z,34.30
2023-01-19T11:14:49.715Z,26.30
2023-01-19T11:15:49.700Z,24.10
2023-01-19T11:16:49.763Z,29.00
2023-01-19T11:17:49.681Z,23.90
2023-01-19T11:18:49.689Z,23.10
2023-01-19T11:19:49.661Z,19.20
2023-01-19T11:20:49.681Z,17.40
2023-01-19T11:21:49.643Z,19.10
2023-01-19T11:22:49.652Z,23.10
2023-01-19T11:23:49.642Z,20.40
2023-01-19T11:24:49.617Z,16.70
2023-01-19T11:25:49.603Z,17.30
2023-01-19T11:26:49.603Z,17.70
2023-01-19T11:27:49.584Z,20.40
2023-01-19T11:28:49.591Z,20.20
2023-01-19T11:29:49.573Z,20.00
2023-01-19T11:30:49.561Z,17.90
2023-01-19T11:31:49.705Z,20.40
2023-01-19T11:32:49.551Z,21.30
2023-01-19T11:33:50.788Z,23.10
2023-01-19T11:34:49.518Z,23.70
2023-01-19T11:35:49.505Z,19.70
2023-01-19T11:36:49.501Z,20.60
2023-01-19T11:37:49.490Z,23.00
2023-01-19T11:38:49.499Z,21.20
2023-01-19T11:39:49.467Z,34.90
2023-01-19T11:40:49.459Z,29.00
2023-01-19T11:41:49.453Z,25.60
2023-01-19T11:42:49.440Z,34.50
2023-01-19T11:43:49.713Z,32.40
2023-01-19T11:44:49.441Z,30.40
2023-01-19T11:45:49.435Z,33.60
2023-01-19T11:46:50.154Z,35.10
2023-01-19T11:47:49.438Z,39.10
2023-01-19T11:48:49.390Z,34.80
2023-01-19T11:49:49.383Z,33.40
2023-01-19T11:50:49.374Z,34.20
2023-01-19T11:51:49.363Z,47.50
2023-01-19T11:52:49.354Z,44.10
2023-01-19T11:53:49.327Z,48.80
2023-01-19T11:54:49.361Z,54.00
2023-01-19T11:55:49.319Z,54.30
2023-01-19T11:56:49.305Z,50.30
2023-01-19T11:57:49.292Z,55.30
2023-01-19T11:58:49.286Z,62.60
2023-01-19T11:59:49.929Z,59.50
2023-01-19T12:00:49.298Z,61.40
2023-01-19T12:01:49.384Z,62.80
2023-01-19T12:02:49.247Z,57.30
2023-01-19T12:03:49.254Z,48.70
2023-01-19T12:04:49.241Z,72.10
2023-01-19T12:05:49.206Z,66.90
2023-01-19T12:06:49.204Z,69.70
2023-01-19T12:07:49.329Z,72.10
2023-01-19T12:08:49.184Z,84.90
2023-01-19T12:09:49.186Z,72.40
2023-01-19T12:10:49.166Z,64.00
2023-01-19T12:11:49.152Z,68.20
2023-01-19T12:12:49.146Z,66.50
2023-01-19T12:13:49.131Z,63.60
2023-01-19T12:14:49.137Z,64.60
2023-01-19T12:15:49.109Z,79.60
2023-01-19T12:16:49.142Z,57.50
2023-01-19T12:17:49.088Z,65.90
2023-01-19T12:18:49.090Z,63.10
2023-01-19T12:19:49.081Z,70.50
2023-01-19T12:20:49.064Z,88.90
2023-01-19T12:21:49.049Z,60.60
2023-01-19T12:22:49.093Z,59.30
2023-01-19T12:23:49.030Z,65.40
2023-01-19T12:24:49.038Z,63.60
2023-01-19T12:25:49.008Z,65.40
2023-01-19T12:26:49.043Z,61.40
2023-01-19T12:27:48.993Z,66.60
2023-01-19T12:28:48.985Z,57.70
2023-01-19T12:29:55.049Z,64.20
2023-01-19T12:30:49.058Z,62.70
2023-01-19T12:31:51.634Z,61.50
2023-01-19T12:32:48.947Z,66.00
2023-01-19T12:33:48.929Z,53.60
2023-01-19T12:34:48.960Z,53.60
2023-01-19T12:35:48.906Z,58.30
2023-01-19T12:36:48.904Z,48.60
2023-01-19T12:37:48.976Z,55.60
2023-01-19T12:38:48.887Z,45.20
2023-01-19T12:39:48.883Z,54.40
2023-01-19T12:40:48.864Z,49.50
2023-01-19T12:41:48.850Z,51.00
2023-01-19T12:42:48.856Z,52.20
2023-01-19T12:43:48.831Z,46.50
2023-01-19T12:44:48.836Z,44.90
2023-01-19T12:45:48.847Z,43.10
2023-01-19T12:46:48.818Z,43.10
2023-01-19T12:47:52.648Z,45.70
2023-01-19T12:48:48.780Z,42.60
2023-01-19T12:49:48.785Z,42.20
2023-01-19T12:50:48.760Z,41.80
2023-01-19T12:51:48.752Z,42.80
2023-01-19T12:52:48.887Z,39.50